sensor_id;sensor_type;location;lat;lon;timestamp;P1;durP1;ratioP1;P2;durP2;ratioP2
44366;SDS011;30086;57.660;12.000;2023-07-08T00:01:15;11.48;;;5.43;;
44366;SDS011;30086;57.660;12.000;2023-07-08T00:03:41;10.73;;;5.53;;
44366;SDS011;30086;57.660;12.000;2023-07-08T00:06:11;14.63;;;5.63;;
44366;SDS011;30086;57.660;12.000;2023-07-08T00:08:37;16.98;;;5.32;;
44366;SDS011;30086;57.660;12.000;2023-07-08T00:11:07;19.13;;;5.75;;
44366;SDS011;30086;57.660;12.000;2023-07-08T00:13:34;12.88;;;5.68;;
44366;SDS011;30086;57.660;12.000;2023-07-08T00:16:00;13.55;;;5.75;;
44366;SDS011;30086;57.660;12.000;2023-07-08T00:18:26;15.93;;;6.43;;
44366;SDS011;30086;57.660;12.000;2023-07-08T00:20:54;17.63;;;6.43;;
44366;SDS011;30086;57.660;12.000;2023-07-08T00:23:47;13.00;;;6.05;;
44366;SDS011;30086;57.660;12.000;2023-07-08T00:28:45;15.70;;;6.95;;
44366;SDS011;30086;57.660;12.000;2023-07-08T00:31:11;15.90;;;6.55;;
44366;SDS011;30086;57.660;12.000;2023-07-08T00:33:38;11.60;;;6.07;;
44366;SDS011;30086;57.660;12.000;2023-07-08T00:36:11;15.50;;;6.07;;
44366;SDS011;30086;57.660;12.000;2023-07-08T00:38:38;15.80;;;7.70;;
44366;SDS011;30086;57.660;12.000;2023-07-08T00:41:11;14.27;;;6.32;;
44366;SDS011;30086;57.660;12.000;2023-07-08T00:43:48;17.42;;;6.90;;
44366;SDS011;30086;57.660;12.000;2023-07-08T00:48:48;14.18;;;5.80;;
44366;SDS011;30086;57.660;12.000;2023-07-08T00:51:15;13.02;;;5.88;;
44366;SDS011;30086;57.660;12.000;2023-07-08T00:53:42;15.27;;;6.55;;
44366;SDS011;30086;57.660;12.000;2023-07-08T00:56:09;14.40;;;5.75;;
44366;SDS011;30086;57.660;12.000;2023-07-08T00:58:56;16.08;;;5.78;;
44366;SDS011;30086;57.660;12.000;2023-07-08T01:01:23;13.25;;;6.15;;
44366;SDS011;30086;57.660;12.000;2023-07-08T01:03:52;17.25;;;6.18;;
44366;SDS011;30086;57.660;12.000;2023-07-08T01:06:19;15.20;;;6.38;;
44366;SDS011;30086;57.660;12.000;2023-07-08T01:08:46;19.83;;;6.88;;
44366;SDS011;30086;57.660;12.000;2023-07-08T01:11:14;16.65;;;6.70;;
44366;SDS011;30086;57.660;12.000;2023-07-08T01:13:41;14.57;;;6.22;;
44366;SDS011;30086;57.660;12.000;2023-07-08T01:16:09;12.55;;;7.45;;
44366;SDS011;30086;57.660;12.000;2023-07-08T01:18:35;16.17;;;5.97;;
44366;SDS011;30086;57.660;12.000;2023-07-08T01:21:03;16.80;;;5.68;;
44366;SDS011;30086;57.660;12.000;2023-07-08T01:23:31;11.75;;;5.35;;
44366;SDS011;30086;57.660;12.000;2023-07-08T01:26:03;13.93;;;5.28;;
44366;SDS011;30086;57.660;12.000;2023-07-08T01:28:30;16.10;;;6.18;;
44366;SDS011;30086;57.660;12.000;2023-07-08T01:30:57;15.07;;;6.38;;
44366;SDS011;30086;57.660;12.000;2023-07-08T01:33:24;15.13;;;7.18;;
44366;SDS011;30086;57.660;12.000;2023-07-08T01:35:51;16.27;;;6.40;;
44366;SDS011;30086;57.660;12.000;2023-07-08T01:38:18;17.13;;;6.10;;
44366;SDS011;30086;57.660;12.000;2023-07-08T01:40:50;15.18;;;7.32;;
44366;SDS011;30086;57.660;12.000;2023-07-08T01:43:16;13.70;;;6.28;;
44366;SDS011;30086;57.660;12.000;2023-07-08T01:45:42;15.05;;;6.07;;
44366;SDS011;30086;57.660;12.000;2023-07-08T01:48:11;14.60;;;6.65;;
44366;SDS011;30086;57.660;12.000;2023-07-08T01:50:39;19.35;;;7.60;;
44366;SDS011;30086;57.660;12.000;2023-07-08T01:53:08;19.95;;;7.32;;
44366;SDS011;30086;57.660;12.000;2023-07-08T01:55:35;13.00;;;6.40;;
44366;SDS011;30086;57.660;12.000;2023-07-08T01:58:01;12.43;;;6.28;;
44366;SDS011;30086;57.660;12.000;2023-07-08T02:00:27;22.13;;;7.00;;
44366;SDS011;30086;57.660;12.000;2023-07-08T02:02:53;16.45;;;6.97;;
44366;SDS011;30086;57.660;12.000;2023-07-08T02:05:19;14.25;;;6.85;;
44366;SDS011;30086;57.660;12.000;2023-07-08T02:07:45;12.60;;;7.30;;
44366;SDS011;30086;57.660;12.000;2023-07-08T02:10:11;18.83;;;6.72;;
44366;SDS011;30086;57.660;12.000;2023-07-08T02:12:37;12.45;;;5.70;;
44366;SDS011;30086;57.660;12.000;2023-07-08T02:15:04;14.27;;;6.30;;
44366;SDS011;30086;57.660;12.000;2023-07-08T02:17:30;11.98;;;6.32;;
44366;SDS011;30086;57.660;12.000;2023-07-08T02:19:56;15.50;;;7.00;;
44366;SDS011;30086;57.660;12.000;2023-07-08T02:22:22;11.50;;;6.95;;
44366;SDS011;30086;57.660;12.000;2023-07-08T02:24:49;18.90;;;8.02;;
44366;SDS011;30086;57.660;12.000;2023-07-08T02:27:15;12.63;;;6.43;;
44366;SDS011;30086;57.660;12.000;2023-07-08T02:29:41;19.48;;;7.05;;
44366;SDS011;30086;57.660;12.000;2023-07-08T02:32:08;11.48;;;6.63;;
44366;SDS011;30086;57.660;12.000;2023-07-08T02:34:35;16.80;;;7.30;;
44366;SDS011;30086;57.660;12.000;2023-07-08T02:37:01;15.90;;;7.22;;
44366;SDS011;30086;57.660;12.000;2023-07-08T02:39:27;12.40;;;6.38;;
44366;SDS011;30086;57.660;12.000;2023-07-08T02:41:53;15.50;;;7.53;;
44366;SDS011;30086;57.660;12.000;2023-07-08T02:44:20;15.85;;;6.90;;
44366;SDS011;30086;57.660;12.000;2023-07-08T02:46:46;22.77;;;7.75;;
44366;SDS011;30086;57.660;12.000;2023-07-08T02:49:13;21.92;;;6.97;;
44366;SDS011;30086;57.660;12.000;2023-07-08T02:51:42;14.73;;;6.95;;
44366;SDS011;30086;57.660;12.000;2023-07-08T02:54:08;16.30;;;7.20;;
44366;SDS011;30086;57.660;12.000;2023-07-08T02:56:36;12.93;;;6.65;;
44366;SDS011;30086;57.660;12.000;2023-07-08T02:59:02;16.27;;;6.55;;
44366;SDS011;30086;57.660;12.000;2023-07-08T03:01:32;14.45;;;5.95;;
44366;SDS011;30086;57.660;12.000;2023-07-08T03:04:09;11.35;;;6.32;;
44366;SDS011;30086;57.660;12.000;2023-07-08T03:06:42;19.42;;;6.60;;
44366;SDS011;30086;57.660;12.000;2023-07-08T03:09:09;21.17;;;6.40;;
44366;SDS011;30086;57.660;12.000;2023-07-08T03:11:35;16.58;;;6.40;;
44366;SDS011;30086;57.660;12.000;2023-07-08T03:14:02;12.52;;;6.28;;
44366;SDS011;30086;57.660;12.000;2023-07-08T03:16:28;13.10;;;5.93;;
44366;SDS011;30086;57.660;12.000;2023-07-08T03:18:55;13.48;;;6.13;;
44366;SDS011;30086;57.660;12.000;2023-07-08T03:21:21;18.33;;;6.38;;
44366;SDS011;30086;57.660;12.000;2023-07-08T03:23:48;13.65;;;5.75;;
44366;SDS011;30086;57.660;12.000;2023-07-08T03:26:15;13.73;;;5.60;;
44366;SDS011;30086;57.660;12.000;2023-07-08T03:28:42;13.27;;;5.80;;
44366;SDS011;30086;57.660;12.000;2023-07-08T03:31:09;11.52;;;5.68;;
44366;SDS011;30086;57.660;12.000;2023-07-08T03:33:35;11.38;;;5.90;;
44366;SDS011;30086;57.660;12.000;2023-07-08T03:36:02;23.60;;;6.10;;
44366;SDS011;30086;57.660;12.000;2023-07-08T03:38:28;14.55;;;5.78;;
44366;SDS011;30086;57.660;12.000;2023-07-08T03:40:55;13.18;;;5.35;;
44366;SDS011;30086;57.660;12.000;2023-07-08T03:43:21;19.45;;;6.35;;
44366;SDS011;30086;57.660;12.000;2023-07-08T03:45:47;11.95;;;6.40;;
44366;SDS011;30086;57.660;12.000;2023-07-08T03:48:15;12.73;;;6.05;;
44366;SDS011;30086;57.660;12.000;2023-07-08T03:50:41;13.75;;;6.18;;
44366;SDS011;30086;57.660;12.000;2023-07-08T03:53:10;16.55;;;5.68;;
44366;SDS011;30086;57.660;12.000;2023-07-08T03:55:36;15.25;;;6.18;;
44366;SDS011;30086;57.660;12.000;2023-07-08T03:58:03;12.27;;;6.60;;
44366;SDS011;30086;57.660;12.000;2023-07-08T04:00:29;20.45;;;6.63;;
44366;SDS011;30086;57.660;12.000;2023-07-08T04:02:55;18.17;;;7.38;;
44366;SDS011;30086;57.660;12.000;2023-07-08T04:05:22;13.90;;;6.45;;
44366;SDS011;30086;57.660;12.000;2023-07-08T04:07:51;11.27;;;5.38;;
44366;SDS011;30086;57.660;12.000;2023-07-08T04:10:36;12.27;;;5.50;;
44366;SDS011;30086;57.660;12.000;2023-07-08T04:13:18;16.98;;;6.10;;
44366;SDS011;30086;57.660;12.000;2023-07-08T04:15:44;16.15;;;6.35;;
44366;SDS011;30086;57.660;12.000;2023-07-08T04:18:15;14.18;;;6.05;;
44366;SDS011;30086;57.660;12.000;2023-07-08T04:20:43;12.43;;;6.22;;
44366;SDS011;30086;57.660;12.000;2023-07-08T04:23:10;13.10;;;6.32;;
44366;SDS011;30086;57.660;12.000;2023-07-08T04:25:36;15.07;;;5.93;;
44366;SDS011;30086;57.660;12.000;2023-07-08T04:28:03;13.88;;;5.70;;
44366;SDS011;30086;57.660;12.000;2023-07-08T04:30:29;15.07;;;7.18;;
44366;SDS011;30086;57.660;12.000;2023-07-08T04:32:57;13.07;;;5.75;;
44366;SDS011;30086;57.660;12.000;2023-07-08T04:35:23;11.65;;;5.97;;
44366;SDS011;30086;57.660;12.000;2023-07-08T04:37:50;18.00;;;6.50;;
44366;SDS011;30086;57.660;12.000;2023-07-08T04:40:17;14.50;;;6.18;;
44366;SDS011;30086;57.660;12.000;2023-07-08T04:42:44;13.25;;;6.50;;
44366;SDS011;30086;57.660;12.000;2023-07-08T04:45:12;15.88;;;5.50;;
44366;SDS011;30086;57.660;12.000;2023-07-08T04:47:39;11.32;;;6.43;;
44366;SDS011;30086;57.660;12.000;2023-07-08T04:50:05;11.45;;;6.15;;
44366;SDS011;30086;57.660;12.000;2023-07-08T04:52:32;11.23;;;5.85;;
44366;SDS011;30086;57.660;12.000;2023-07-08T04:55:00;15.55;;;6.40;;
44366;SDS011;30086;57.660;12.000;2023-07-08T04:57:26;15.98;;;5.97;;
44366;SDS011;30086;57.660;12.000;2023-07-08T04:59:52;11.25;;;5.93;;
44366;SDS011;30086;57.660;12.000;2023-07-08T05:02:18;12.20;;;6.07;;
44366;SDS011;30086;57.660;12.000;2023-07-08T05:04:45;14.00;;;4.97;;
44366;SDS011;30086;57.660;12.000;2023-07-08T05:07:11;13.75;;;5.47;;
44366;SDS011;30086;57.660;12.000;2023-07-08T05:09:37;10.23;;;5.18;;
44366;SDS011;30086;57.660;12.000;2023-07-08T05:12:05;16.70;;;4.75;;
44366;SDS011;30086;57.660;12.000;2023-07-08T05:14:40;10.90;;;4.53;;
44366;SDS011;30086;57.660;12.000;2023-07-08T05:17:08;13.20;;;5.13;;
44366;SDS011;30086;57.660;12.000;2023-07-08T05:19:34;10.35;;;5.70;;
44366;SDS011;30086;57.660;12.000;2023-07-08T05:22:00;11.68;;;5.10;;
44366;SDS011;30086;57.660;12.000;2023-07-08T05:24:27;14.80;;;5.47;;
44366;SDS011;30086;57.660;12.000;2023-07-08T05:26:54;10.00;;;4.85;;
44366;SDS011;30086;57.660;12.000;2023-07-08T05:29:20;10.95;;;4.00;;
44366;SDS011;30086;57.660;12.000;2023-07-08T05:31:47;14.65;;;5.03;;
44366;SDS011;30086;57.660;12.000;2023-07-08T05:34:15;11.95;;;5.47;;
44366;SDS011;30086;57.660;12.000;2023-07-08T05:36:42;15.15;;;4.55;;
44366;SDS011;30086;57.660;12.000;2023-07-08T05:39:11;11.23;;;4.32;;
44366;SDS011;30086;57.660;12.000;2023-07-08T05:41:37;11.45;;;4.32;;
44366;SDS011;30086;57.660;12.000;2023-07-08T05:44:03;11.25;;;4.38;;
44366;SDS011;30086;57.660;12.000;2023-07-08T05:46:29;12.90;;;4.43;;
44366;SDS011;30086;57.660;12.000;2023-07-08T05:48:56;10.98;;;4.10;;
44366;SDS011;30086;57.660;12.000;2023-07-08T05:51:23;9.35;;;4.32;;
44366;SDS011;30086;57.660;12.000;2023-07-08T05:53:49;11.00;;;3.80;;
44366;SDS011;30086;57.660;12.000;2023-07-08T05:56:15;19.15;;;4.78;;
44366;SDS011;30086;57.660;12.000;2023-07-08T05:58:42;11.63;;;4.07;;
44366;SDS011;30086;57.660;12.000;2023-07-08T06:01:08;9.30;;;4.22;;
44366;SDS011;30086;57.660;12.000;2023-07-08T06:03:34;11.35;;;4.50;;
44366;SDS011;30086;57.660;12.000;2023-07-08T06:06:00;14.68;;;4.72;;
44366;SDS011;30086;57.660;12.000;2023-07-08T06:08:27;9.05;;;3.50;;
44366;SDS011;30086;57.660;12.000;2023-07-08T06:10:54;10.65;;;3.80;;
44366;SDS011;30086;57.660;12.000;2023-07-08T06:13:20;10.38;;;4.13;;
44366;SDS011;30086;57.660;12.000;2023-07-08T06:15:46;11.50;;;3.58;;
44366;SDS011;30086;57.660;12.000;2023-07-08T06:18:13;11.00;;;4.32;;
44366;SDS011;30086;57.660;12.000;2023-07-08T06:20:39;11.80;;;3.97;;
44366;SDS011;30086;57.660;12.000;2023-07-08T06:23:05;11.00;;;3.63;;
44366;SDS011;30086;57.660;12.000;2023-07-08T06:25:31;8.90;;;3.95;;
44366;SDS011;30086;57.660;12.000;2023-07-08T06:28:08;11.13;;;3.42;;
44366;SDS011;30086;57.660;12.000;2023-07-08T06:30:34;16.90;;;4.20;;
44366;SDS011;30086;57.660;12.000;2023-07-08T06:33:01;11.25;;;3.97;;
44366;SDS011;30086;57.660;12.000;2023-07-08T06:35:27;11.07;;;3.42;;
44366;SDS011;30086;57.660;12.000;2023-07-08T06:37:54;12.38;;;3.97;;
44366;SDS011;30086;57.660;12.000;2023-07-08T06:40:20;6.13;;;3.40;;
44366;SDS011;30086;57.660;12.000;2023-07-08T06:42:46;8.68;;;3.10;;
44366;SDS011;30086;57.660;12.000;2023-07-08T06:45:13;11.05;;;3.20;;
44366;SDS011;30086;57.660;12.000;2023-07-08T06:47:39;10.52;;;3.05;;
44366;SDS011;30086;57.660;12.000;2023-07-08T06:50:05;8.88;;;3.35;;
44366;SDS011;30086;57.660;12.000;2023-07-08T06:52:32;8.98;;;3.60;;
44366;SDS011;30086;57.660;12.000;2023-07-08T06:55:06;11.75;;;3.35;;
44366;SDS011;30086;57.660;12.000;2023-07-08T06:57:33;10.00;;;3.03;;
44366;SDS011;30086;57.660;12.000;2023-07-08T07:00:00;7.03;;;3.17;;
44366;SDS011;30086;57.660;12.000;2023-07-08T07:02:26;8.98;;;3.00;;
44366;SDS011;30086;57.660;12.000;2023-07-08T07:04:52;7.57;;;3.15;;
44366;SDS011;30086;57.660;12.000;2023-07-08T07:07:20;10.68;;;3.33;;
44366;SDS011;30086;57.660;12.000;2023-07-08T07:09:49;8.45;;;3.30;;
44366;SDS011;30086;57.660;12.000;2023-07-08T07:12:16;6.25;;;2.75;;
44366;SDS011;30086;57.660;12.000;2023-07-08T07:14:42;6.18;;;3.03;;
44366;SDS011;30086;57.660;12.000;2023-07-08T07:17:08;8.75;;;2.72;;
44366;SDS011;30086;57.660;12.000;2023-07-08T07:19:35;7.13;;;2.88;;
44366;SDS011;30086;57.660;12.000;2023-07-08T07:22:01;8.30;;;2.50;;
44366;SDS011;30086;57.660;12.000;2023-07-08T07:24:27;7.60;;;3.05;;
44366;SDS011;30086;57.660;12.000;2023-07-08T07:26:53;8.02;;;2.75;;
44366;SDS011;30086;57.660;12.000;2023-07-08T07:29:22;6.30;;;2.97;;
44366;SDS011;30086;57.660;12.000;2023-07-08T07:31:49;8.48;;;2.97;;
44366;SDS011;30086;57.660;12.000;2023-07-08T07:34:18;11.30;;;3.22;;
44366;SDS011;30086;57.660;12.000;2023-07-08T07:36:44;9.68;;;3.25;;
44366;SDS011;30086;57.660;12.000;2023-07-08T07:39:11;9.88;;;3.58;;
44366;SDS011;30086;57.660;12.000;2023-07-08T07:41:37;6.22;;;2.88;;
44366;SDS011;30086;57.660;12.000;2023-07-08T07:44:03;6.20;;;2.83;;
44366;SDS011;30086;57.660;12.000;2023-07-08T07:46:29;6.07;;;2.92;;
44366;SDS011;30086;57.660;12.000;2023-07-08T07:48:55;9.07;;;3.03;;
44366;SDS011;30086;57.660;12.000;2023-07-08T07:51:21;7.70;;;2.83;;
44366;SDS011;30086;57.660;12.000;2023-07-08T07:53:47;4.97;;;2.70;;
44366;SDS011;30086;57.660;12.000;2023-07-08T07:56:13;5.95;;;2.30;;
44366;SDS011;30086;57.660;12.000;2023-07-08T07:58:43;4.10;;;1.98;;
44366;SDS011;30086;57.660;12.000;2023-07-08T08:01:09;8.52;;;2.42;;
44366;SDS011;30086;57.660;12.000;2023-07-08T08:03:38;6.20;;;3.00;;
44366;SDS011;30086;57.660;12.000;2023-07-08T08:06:04;5.85;;;2.35;;
44366;SDS011;30086;57.660;12.000;2023-07-08T08:08:30;3.78;;;1.80;;
44366;SDS011;30086;57.660;12.000;2023-07-08T08:10:56;6.38;;;2.55;;
44366;SDS011;30086;57.660;12.000;2023-07-08T08:13:22;4.25;;;2.13;;
44366;SDS011;30086;57.660;12.000;2023-07-08T08:15:48;4.97;;;2.72;;
44366;SDS011;30086;57.660;12.000;2023-07-08T08:18:14;6.65;;;2.58;;
44366;SDS011;30086;57.660;12.000;2023-07-08T08:20:40;8.50;;;3.10;;
44366;SDS011;30086;57.660;12.000;2023-07-08T08:23:06;5.45;;;2.70;;
44366;SDS011;30086;57.660;12.000;2023-07-08T08:25:36;5.70;;;1.75;;
44366;SDS011;30086;57.660;12.000;2023-07-08T08:28:04;5.03;;;2.53;;
44366;SDS011;30086;57.660;12.000;2023-07-08T08:30:35;7.35;;;3.33;;
44366;SDS011;30086;57.660;12.000;2023-07-08T08:33:01;8.60;;;3.30;;
44366;SDS011;30086;57.660;12.000;2023-07-08T08:35:27;8.50;;;3.08;;
44366;SDS011;30086;57.660;12.000;2023-07-08T08:37:53;6.63;;;2.45;;
44366;SDS011;30086;57.660;12.000;2023-07-08T08:40:20;7.80;;;3.25;;
44366;SDS011;30086;57.660;12.000;2023-07-08T08:42:50;12.55;;;3.33;;
44366;SDS011;30086;57.660;12.000;2023-07-08T08:45:18;7.70;;;2.83;;
44366;SDS011;30086;57.660;12.000;2023-07-08T08:47:47;7.95;;;2.90;;
44366;SDS011;30086;57.660;12.000;2023-07-08T08:52:43;9.13;;;3.10;;
44366;SDS011;30086;57.660;12.000;2023-07-08T08:55:13;6.93;;;3.10;;
44366;SDS011;30086;57.660;12.000;2023-07-08T09:00:07;5.25;;;2.55;;
44366;SDS011;30086;57.660;12.000;2023-07-08T09:05:04;5.65;;;3.22;;
44366;SDS011;30086;57.660;12.000;2023-07-08T09:07:35;8.95;;;2.60;;
44366;SDS011;30086;57.660;12.000;2023-07-08T09:10:07;7.85;;;2.42;;
44366;SDS011;30086;57.660;12.000;2023-07-08T09:12:36;6.63;;;2.92;;
44366;SDS011;30086;57.660;12.000;2023-07-08T09:15:12;7.13;;;2.60;;
44366;SDS011;30086;57.660;12.000;2023-07-08T09:17:40;6.10;;;2.50;;
44366;SDS011;30086;57.660;12.000;2023-07-08T09:20:12;10.73;;;3.17;;
44366;SDS011;30086;57.660;12.000;2023-07-08T09:27:42;5.97;;;2.13;;
44366;SDS011;30086;57.660;12.000;2023-07-08T09:30:15;6.63;;;2.92;;
44366;SDS011;30086;57.660;12.000;2023-07-08T09:32:42;6.40;;;2.75;;
44366;SDS011;30086;57.660;12.000;2023-07-08T09:35:08;2.65;;;1.63;;
44366;SDS011;30086;57.660;12.000;2023-07-08T09:37:35;5.30;;;2.35;;
44366;SDS011;30086;57.660;12.000;2023-07-08T09:40:09;6.18;;;2.30;;
44366;SDS011;30086;57.660;12.000;2023-07-08T09:42:37;6.38;;;1.70;;
44366;SDS011;30086;57.660;12.000;2023-07-08T09:45:10;3.65;;;2.03;;
44366;SDS011;30086;57.660;12.000;2023-07-08T09:47:37;3.13;;;2.10;;
44366;SDS011;30086;57.660;12.000;2023-07-08T09:50:15;7.80;;;2.22;;
44366;SDS011;30086;57.660;12.000;2023-07-08T09:52:42;5.88;;;2.40;;
44366;SDS011;30086;57.660;12.000;2023-07-08T09:55:12;5.30;;;2.80;;
44366;SDS011;30086;57.660;12.000;2023-07-08T09:57:38;4.40;;;2.60;;
44366;SDS011;30086;57.660;12.000;2023-07-08T10:00:12;8.20;;;2.92;;
44366;SDS011;30086;57.660;12.000;2023-07-08T10:02:43;3.92;;;1.48;;
44366;SDS011;30086;57.660;12.000;2023-07-08T10:05:18;5.60;;;1.73;;
44366;SDS011;30086;57.660;12.000;2023-07-08T10:07:45;4.72;;;2.58;;
44366;SDS011;30086;57.660;12.000;2023-07-08T10:10:16;5.55;;;2.60;;
44366;SDS011;30086;57.660;12.000;2023-07-08T10:12:46;6.18;;;3.10;;
44366;SDS011;30086;57.660;12.000;2023-07-08T10:15:17;3.78;;;2.38;;
44366;SDS011;30086;57.660;12.000;2023-07-08T10:17:46;6.88;;;2.83;;
44366;SDS011;30086;57.660;12.000;2023-07-08T10:20:12;5.75;;;2.60;;
44366;SDS011;30086;57.660;12.000;2023-07-08T10:27:49;7.32;;;2.78;;
44366;SDS011;30086;57.660;12.000;2023-07-08T10:30:20;7.32;;;2.67;;
44366;SDS011;30086;57.660;12.000;2023-07-08T10:35:19;3.70;;;1.67;;
44366;SDS011;30086;57.660;12.000;2023-07-08T10:45:25;4.10;;;2.47;;
44366;SDS011;30086;57.660;12.000;2023-07-08T10:50:46;8.27;;;2.85;;
44366;SDS011;30086;57.660;12.000;2023-07-08T10:54:03;7.13;;;2.78;;
44366;SDS011;30086;57.660;12.000;2023-07-08T10:56:05;5.10;;;2.60;;
44366;SDS011;30086;57.660;12.000;2023-07-08T11:01:03;3.97;;;1.92;;
44366;SDS011;30086;57.660;12.000;2023-07-08T11:06:26;4.30;;;2.38;;
44366;SDS011;30086;57.660;12.000;2023-07-08T11:08:55;6.80;;;1.88;;
44366;SDS011;30086;57.660;12.000;2023-07-08T11:14:14;7.75;;;2.17;;
44366;SDS011;30086;57.660;12.000;2023-07-08T11:16:51;4.93;;;1.83;;
44366;SDS011;30086;57.660;12.000;2023-07-08T11:19:20;2.97;;;2.15;;
44366;SDS011;30086;57.660;12.000;2023-07-08T11:21:49;4.25;;;2.42;;
44366;SDS011;30086;57.660;12.000;2023-07-08T11:26:43;6.55;;;2.17;;
44366;SDS011;30086;57.660;12.000;2023-07-08T11:29:32;6.32;;;2.13;;
44366;SDS011;30086;57.660;12.000;2023-07-08T11:32:01;4.43;;;1.98;;
44366;SDS011;30086;57.660;12.000;2023-07-08T11:34:28;3.22;;;1.25;;
44366;SDS011;30086;57.660;12.000;2023-07-08T11:36:58;2.95;;;2.22;;
44366;SDS011;30086;57.660;12.000;2023-07-08T11:39:41;6.55;;;2.58;;
44366;SDS011;30086;57.660;12.000;2023-07-08T11:42:32;4.80;;;2.00;;
44366;SDS011;30086;57.660;12.000;2023-07-08T11:45:01;3.28;;;2.22;;
44366;SDS011;30086;57.660;12.000;2023-07-08T11:47:47;4.93;;;1.80;;
44366;SDS011;30086;57.660;12.000;2023-07-08T11:52:54;4.88;;;2.35;;
44366;SDS011;30086;57.660;12.000;2023-07-08T11:55:22;5.45;;;2.88;;
44366;SDS011;30086;57.660;12.000;2023-07-08T11:57:53;4.65;;;1.98;;
44366;SDS011;30086;57.660;12.000;2023-07-08T12:00:23;10.40;;;2.40;;
44366;SDS011;30086;57.660;12.000;2023-07-08T12:05:15;4.38;;;2.58;;
44366;SDS011;30086;57.660;12.000;2023-07-08T12:07:42;7.25;;;2.70;;
44366;SDS011;30086;57.660;12.000;2023-07-08T12:10:11;7.63;;;1.83;;
44366;SDS011;30086;57.660;12.000;2023-07-08T12:12:41;3.72;;;1.60;;
44366;SDS011;30086;57.660;12.000;2023-07-08T12:15:21;9.07;;;2.45;;
44366;SDS011;30086;57.660;12.000;2023-07-08T12:17:48;3.30;;;2.28;;
44366;SDS011;30086;57.660;12.000;2023-07-08T12:20:21;8.07;;;3.70;;
44366;SDS011;30086;57.660;12.000;2023-07-08T12:22:47;1.57;;;1.37;;
44366;SDS011;30086;57.660;12.000;2023-07-08T12:25:15;7.72;;;1.90;;
44366;SDS011;30086;57.660;12.000;2023-07-08T12:27:46;4.25;;;2.00;;
44366;SDS011;30086;57.660;12.000;2023-07-08T12:30:13;4.80;;;2.22;;
44366;SDS011;30086;57.660;12.000;2023-07-08T12:32:39;6.25;;;2.22;;
44366;SDS011;30086;57.660;12.000;2023-07-08T12:35:14;4.97;;;2.45;;
44366;SDS011;30086;57.660;12.000;2023-07-08T12:37:45;7.85;;;2.65;;
44366;SDS011;30086;57.660;12.000;2023-07-08T12:40:13;5.97;;;2.63;;
44366;SDS011;30086;57.660;12.000;2023-07-08T12:42:39;8.77;;;2.67;;
44366;SDS011;30086;57.660;12.000;2023-07-08T12:45:12;4.63;;;2.35;;
44366;SDS011;30086;57.660;12.000;2023-07-08T12:47:39;7.93;;;2.67;;
44366;SDS011;30086;57.660;12.000;2023-07-08T12:50:05;6.05;;;2.40;;
44366;SDS011;30086;57.660;12.000;2023-07-08T12:52:31;6.22;;;2.92;;
44366;SDS011;30086;57.660;12.000;2023-07-08T12:54:58;4.43;;;2.30;;
44366;SDS011;30086;57.660;12.000;2023-07-08T12:57:24;3.28;;;2.28;;
44366;SDS011;30086;57.660;12.000;2023-07-08T12:59:51;3.60;;;2.47;;
44366;SDS011;30086;57.660;12.000;2023-07-08T13:02:19;5.22;;;3.00;;
44366;SDS011;30086;57.660;12.000;2023-07-08T13:04:49;5.35;;;2.53;;
44366;SDS011;30086;57.660;12.000;2023-07-08T13:07:48;7.28;;;2.80;;
44366;SDS011;30086;57.660;12.000;2023-07-08T13:10:13;5.18;;;2.17;;
44366;SDS011;30086;57.660;12.000;2023-07-08T13:12:43;3.45;;;2.17;;
44366;SDS011;30086;57.660;12.000;2023-07-08T13:15:12;5.78;;;2.30;;
44366;SDS011;30086;57.660;12.000;2023-07-08T13:17:40;2.13;;;1.40;;
44366;SDS011;30086;57.660;12.000;2023-07-08T13:20:08;6.85;;;2.83;;
44366;SDS011;30086;57.660;12.000;2023-07-08T13:22:37;4.50;;;2.60;;
44366;SDS011;30086;57.660;12.000;2023-07-08T13:25:09;7.20;;;2.80;;
44366;SDS011;30086;57.660;12.000;2023-07-08T13:27:53;4.00;;;2.53;;
44366;SDS011;30086;57.660;12.000;2023-07-08T13:30:20;3.03;;;2.17;;
44366;SDS011;30086;57.660;12.000;2023-07-08T13:32:53;6.80;;;2.78;;
44366;SDS011;30086;57.660;12.000;2023-07-08T13:35:23;5.88;;;3.00;;
44366;SDS011;30086;57.660;12.000;2023-07-08T13:37:50;4.85;;;2.50;;
44366;SDS011;30086;57.660;12.000;2023-07-08T13:40:16;4.63;;;2.50;;
44366;SDS011;30086;57.660;12.000;2023-07-08T13:42:49;5.60;;;2.50;;
44366;SDS011;30086;57.660;12.000;2023-07-08T13:45:17;6.60;;;2.28;;
44366;SDS011;30086;57.660;12.000;2023-07-08T13:47:45;3.70;;;1.90;;
44366;SDS011;30086;57.660;12.000;2023-07-08T13:50:24;3.80;;;2.30;;
44366;SDS011;30086;57.660;12.000;2023-07-08T13:52:55;6.22;;;2.80;;
44366;SDS011;30086;57.660;12.000;2023-07-08T13:55:22;5.13;;;2.58;;
44366;SDS011;30086;57.660;12.000;2023-07-08T13:57:58;4.38;;;2.47;;
44366;SDS011;30086;57.660;12.000;2023-07-08T14:00:25;4.03;;;2.10;;
44366;SDS011;30086;57.660;12.000;2023-07-08T14:02:51;5.55;;;2.70;;
44366;SDS011;30086;57.660;12.000;2023-07-08T14:05:17;3.22;;;2.13;;
44366;SDS011;30086;57.660;12.000;2023-07-08T14:07:46;4.70;;;2.38;;
44366;SDS011;30086;57.660;12.000;2023-07-08T14:10:14;5.35;;;2.60;;
44366;SDS011;30086;57.660;12.000;2023-07-08T14:12:41;3.47;;;2.40;;
44366;SDS011;30086;57.660;12.000;2023-07-08T14:15:08;4.30;;;2.50;;
44366;SDS011;30086;57.660;12.000;2023-07-08T14:17:34;4.30;;;2.33;;
44366;SDS011;30086;57.660;12.000;2023-07-08T14:20:00;3.90;;;2.85;;
44366;SDS011;30086;57.660;12.000;2023-07-08T14:22:29;5.22;;;2.88;;
44366;SDS011;30086;57.660;12.000;2023-07-08T14:24:56;5.03;;;2.65;;
44366;SDS011;30086;57.660;12.000;2023-07-08T14:27:24;6.07;;;2.55;;
44366;SDS011;30086;57.660;12.000;2023-07-08T14:29:50;5.05;;;2.50;;
44366;SDS011;30086;57.660;12.000;2023-07-08T14:32:20;4.05;;;2.47;;
44366;SDS011;30086;57.660;12.000;2023-07-08T14:34:52;3.20;;;1.70;;
44366;SDS011;30086;57.660;12.000;2023-07-08T14:37:19;4.47;;;2.15;;
44366;SDS011;30086;57.660;12.000;2023-07-08T14:39:47;3.35;;;2.38;;
44366;SDS011;30086;57.660;12.000;2023-07-08T14:42:14;1.83;;;1.20;;
44366;SDS011;30086;57.660;12.000;2023-07-08T14:44:43;3.53;;;1.92;;
44366;SDS011;30086;57.660;12.000;2023-07-08T14:47:13;9.05;;;2.65;;
44366;SDS011;30086;57.660;12.000;2023-07-08T14:49:39;3.35;;;2.30;;
44366;SDS011;30086;57.660;12.000;2023-07-08T14:52:07;5.72;;;2.50;;
44366;SDS011;30086;57.660;12.000;2023-07-08T14:54:34;3.38;;;2.80;;
44366;SDS011;30086;57.660;12.000;2023-07-08T14:57:00;5.30;;;2.80;;
44366;SDS011;30086;57.660;12.000;2023-07-08T14:59:28;3.88;;;2.13;;
44366;SDS011;30086;57.660;12.000;2023-07-08T15:01:55;8.00;;;2.53;;
44366;SDS011;30086;57.660;12.000;2023-07-08T15:04:22;3.20;;;2.40;;
44366;SDS011;30086;57.660;12.000;2023-07-08T15:06:48;5.47;;;2.35;;
44366;SDS011;30086;57.660;12.000;2023-07-08T15:09:15;4.10;;;2.63;;
44366;SDS011;30086;57.660;12.000;2023-07-08T15:11:44;7.13;;;2.88;;
44366;SDS011;30086;57.660;12.000;2023-07-08T15:14:20;5.75;;;2.65;;
44366;SDS011;30086;57.660;12.000;2023-07-08T15:16:46;5.40;;;1.92;;
44366;SDS011;30086;57.660;12.000;2023-07-08T15:19:12;6.65;;;2.92;;
44366;SDS011;30086;57.660;12.000;2023-07-08T15:21:40;2.85;;;1.45;;
44366;SDS011;30086;57.660;12.000;2023-07-08T15:24:10;1.75;;;1.27;;
44366;SDS011;30086;57.660;12.000;2023-07-08T15:26:40;1.98;;;1.38;;